Greater Binghamton/Edwin A Link field
KBGM : now visible

Airfield :











YOU CAN JOIN US ON...

 
LOGIN :

Register | Disclaimer

   EN    FR    IT 

 









Legend :    VFR   Marginal VFR   IFR   Intensive IFR   Very Intensive IFR
Visi :
Ceiling :
>= 8 km
>= 3000ft
5 to 8 km
1000 to 3000 ft
1500m to 5 km
500 to 1000 ft
800 to 1500m
200 to 500 ft
< 800m
< 200 ft
Symbols :   Thunderstorms  Fog  Heavy snow  Heavy precipitations  Wind > 20 kt






- Airport Elevation : 1636 ft
- IATA code : BGM


KBGM - Greater Binghamton/Edwin A Link field

CURRENT METAR :
  • 230121Z 30008KT 1 1/2SM -SN BR BKN029 BKN038 OVC050 M01/M02 A2989 RMK AO2 SFC VIS 4 P0001 T10111022

EXPIRED METARs :
  • 230053Z 31005KT 1 1/2SM -SN BKN043 OVC055 M01/M03 A2988 RMK AO2 SFC VIS 10 SNE09B49 SLP135 P0000 T10111028
  • 230003Z 32007KT 1 1/2SM -SN BR OVC030 M01/M03 A2986 RMK AO2 SFC VIS 2 1/2 P0000 T10111028
  • 222358Z 31009KT 3/4SM -SN BR FEW014 OVC025 M01/M03 A2986 RMK AO2 TWR VIS 1 1/2 P0000 T10111028 RVRNO
  • 222344Z 32009G16KT 1SM -SN OVC027 M01/M04 A2986 RMK AO2 SFC VIS 4 SNE03B22 P0000 T10061039
  • 222314Z 29008KT 10SM FEW028 BKN034 OVC055 M01/M03 A2985 RMK AO2 SNE03 P0000 T10061028
  • 222259Z 30009KT 3SM -SN BR FEW008 BKN035 OVC055 M01/M03 A2985 RMK AO2 P0000 T10111028
  • 222253Z 30012G23KT 1/4SM -SN FZFG FEW005 BKN018 OVC055 M01/M03 A2985 RMK AO2 PK WND 29031/2241 SNE19B38 SLP128 P0001 T10111028 RVRNO
  • 222236Z 29014G21KT 9SM FEW018 BKN031 OVC070 01/M04 A2984 RMK AO2 SNE19 P0000 T00061044

TAF KBGM
Valid from the 23 at 00:00 until the 24 at 00:00 UTC


222326Z 2300/2324 30008KT P6SM BKN040
TEMPO 2300/2303 30012G24KT 2SM -SHSN BKN020
FM230900 26009G14KT P6SM SKC
KZNY FIR / North America



MET'MAP, your aeronautical weather chart ! - Copyright ORBIFLY December 2007 - Disclaimer

ORBIFLY MET'MAP TEAM :

Programming & Development : Alexandra Zaïnal
Concept & original design : Baudouin d'Aumeries
Assistance for programming : Marc-Olivier Méhu
Technical & hardware support : Manuel Goepfert

Contact : metmap@orbifly.com




SOURCES & CREDITS :

   NOAA       Earth
Advisory